Pattison, MS (39144)

7:13 PM CDT on July 22, 2014 (GMT -0500)
KMSUNION2 Elev 515 ft | 31.68 °N, 90.78 °W | Change Station

Current weather conditions updated 1 minute ago

Overcast
Overcast
82.6 °F
Feels Like 87 °F
N
0.0
Wind Variable Wind from NNE
Gusts 0.0 mph

Tomorrow is forecast to be Warmer than today. Thunderstorms.

Today
High -- | Low -- °F
--% Chance of Precip.
Yesterday
High -- | Low -- °F
Precip. -- in
6:12 AM 8:06 PM
Waning Crescent, 14% visible
Pressure 30.06 in
Visibility 5.0 miles
Clouds Clear
Heat Index 87 °F
Dew Point 70 °F
Humidity 66%
Rainfall 0.00 in
Snow Depth Not available.
UV 1 out of 12
Pollen 3.50 out of 12
Air Quality Not available.
Flu Activity Not available.
METAR K1R7 222355Z AUTO 00000KT 5SM HZ CLR 28/24 A3006 RMK AO2

More Conditions Fewer Conditions

Pressure 30.06 in
Visibility 5.0 miles
Clouds Clear
Heat Index 87 °F
Dew Point 70 °F
Humidity 66%
Rainfall 0.00 in
Snow Depth Not available.
UV 1 out of 12
Pollen 3.50 out of 12
Air Quality Not available.
Flu Activity Not available.
METAR K1R7 222355Z AUTO 00000KT 5SM HZ CLR 28/24 A3006 RMK AO2

More Conditions Fewer Conditions

10-Day Weather Forecast

Almanac

Astronomy

Jul. 22, 2014 Rise Set
Actual Time 6:12 AM CDT 8:06 PM CDT
Civil Twilight 5:45 AM CDT 8:33 PM CDT
Nautical Twilight 5:12 AM CDT 9:06 PM CDT
Astronomical Twilight 4:37 AM CDT 9:41 PM CDT
Moon 2:43 AM CDT (7/22) 4:46 PM CDT (7/22)
Length of Visible Light 14h 48m
Length of Day
13h 54m
Tomorrow will be 1m 13s shorter.
Waning Crescent, 14% of the Moon is Illuminated
Today
Waning Crescent
Jul 26
New
Aug 3
First Quarter
Aug 10
Full
Aug 17
Last Quarter

Today's Extremes

State Highs State Lows

Community

WunderPhotos

Upload Photos

1,736,411 photos uploaded!

Nearby

Snow Depth

Station Depth Elevation
No new snow has been reported.

Earthquake Activity

City Distance Mag. Time & Date
No recent earthquake activity has been reported nearby.
Minimum magnitude displayed is 2.5.

Coastal Water Temperatures

Place Temperature
No Stations Reporting

Nearby Weather Stations

Station Location Temp. Heat Index Dew Point Humidity Wind Precip. Elev Updated Type
Union Church, MS 82.6 °F 87 °F 70 °F 66% NNE  at  0.0 mph 0.00 in / hr 515 ft 7:12 PM CDT Rapid Fire

Show More Stations Show Fewer Stations